| time (UTC) | temp F | wind direction | speed knots | gust knots | rain 1hr in | rain 24hr in | rain mn in | humidity % | barometer mb |
| 20260906065339 | 75 | 321 | 2.6 | 2.6 | 0.00 | 0.00 | 0.00 | 87 | 1012.1 |
| 20260906064835 | 75 | 323 | 2.6 | 2.6 | 0.00 | 0.00 | 0.00 | 87 | 1012.2 |
| 20260906064331 | 75 | 317 | 1.7 | 1.7 | 0.00 | 0.00 | 0.00 | 87 | 1012.1 |
| 20260906063831 | 75 | 309 | 0.9 | 0.9 | 0.00 | 0.00 | 0.00 | 87 | 1012.0 |
| 20260906063326 | 75 | 313 | 0.9 | 0.9 | 0.00 | 0.00 | 0.00 | 87 | 1012.0 |
| 20260906062821 | 75 | 319 | 1.7 | 1.7 | 0.00 | 0.00 | 0.00 | 86 | 1012.1 |
| 20260906062320 | 73 | 333 | 0.9 | 1.7 | 0.00 | 0.00 | 0.00 | 88 | 1012.1 |
| 20260906061816 | 73 | 21 | 0.9 | 0.9 | 0.00 | 0.00 | 0.00 | 88 | 1012.1 |
| 20260906061312 | 73 | 21 | 0.0 | 0.9 | 0.00 | 0.00 | 0.00 | 88 | 1012.5 |
| 20260906060807 | 73 | 21 | 0.0 | 0.0 | 0.00 | 0.00 | 0.00 | 87 | 1012.2 |
| 20260906060305 | 74 | 20 | 0.0 | 0.9 | 0.00 | 0.00 | 0.00 | 86 | 1012.2 |
| 20260906055800 | 73 | 43 | 0.0 | 0.9 | 0.00 | 0.00 | 0.00 | 87 | 1011.9 |
| 20260906055255 | 73 | 52 | 0.0 | 0.9 | 0.00 | 0.00 | 0.00 | 86 | 1012.0 |
| 20260906054750 | 73 | 105 | 0.9 | 0.9 | 0.00 | 0.00 | 0.00 | 86 | 1011.7 |
| 20260906054246 | 73 | 106 | 0.9 | 0.9 | 0.00 | 0.00 | 0.00 | 85 | 1011.6 |
| 20260906053743 | 76 | 65 | 0.9 | 0.9 | 0.00 | 0.00 | 0.00 | 82 | 1011.3 |
| 20260906053238 | 76 | 321 | 0.9 | 0.9 | 0.00 | 0.00 | 0.00 | 80 | 1011.5 |
| 20260906052733 | 73 | 358 | 0.0 | 0.9 | 0.00 | 0.00 | 0.00 | 86 | 1011.6 |
| 20260906052229 | 72 | 143 | 0.9 | 0.9 | 0.00 | 0.00 | 0.00 | 89 | 1011.5 |
| 20260906051726 | 72 | 170 | 1.7 | 1.7 | 0.00 | 0.00 | 0.00 | 89 | 1011.9 |
| 20260906051225 | 73 | 148 | 1.7 | 1.7 | 0.00 | 0.00 | 0.00 | 89 | 1011.5 |
| 20260906050721 | 73 | 143 | 1.7 | 1.7 | 0.00 | 0.00 | 0.00 | 88 | 1011.7 |
| 20260906050216 | 73 | 144 | 2.6 | 2.6 | 0.00 | 0.00 | 0.00 | 87 | 1011.9 |
| 20260906045714 | 74 | 97 | 0.9 | 0.9 | 0.00 | 0.00 | 0.00 | 86 | 1012.1 |
| 20260906045209 | 76 | 87 | 0.9 | 0.9 | 0.00 | 0.00 | 0.00 | 82 | 1012.1 |
| 20260906044705 | 76 | 340 | 0.0 | 0.0 | 0.00 | 0.00 | 0.00 | 78 | 1012.0 |
| 20260906044200 | 74 | 52 | 0.0 | 0.0 | 0.00 | 0.00 | 0.00 | 83 | 1011.9 |
| 20260906043656 | 74 | 99 | 1.7 | 1.7 | 0.00 | 0.00 | 0.00 | 83 | 1012.3 |
| 20260906043152 | 73 | 135 | 3.5 | 4.3 | 0.00 | 0.00 | 0.00 | 86 | 1012.1 |
| 20260906042651 | 73 | 150 | 1.7 | 1.7 | 0.00 | 0.00 | 0.00 | 88 | 1012.0 |
| 20260906042145 | 74 | 99 | 0.9 | 0.9 | 0.00 | 0.00 | 0.00 | 87 | 1012.1 |
| 20260906041641 | 74 | 121 | 0.9 | 0.9 | 0.00 | 0.00 | 0.00 | 85 | 1012.4 |
| 20260906041136 | 74 | 130 | 2.6 | 2.6 | 0.00 | 0.00 | 0.00 | 84 | 1012.3 |
| 20260906040632 | 74 | 121 | 2.6 | 2.6 | 0.00 | 0.00 | 0.00 | 84 | 1012.2 |
| 20260906040127 | 76 | 150 | 1.7 | 1.7 | 0.00 | 0.07 | 0.07 | 82 | 1012.1 |
| 20260906035622 | 75 | 111 | 0.9 | 0.9 | 0.00 | 0.07 | 0.07 | 78 | 1012.3 |
| 20260906035118 | 75 | 131 | 4.3 | 4.3 | 0.00 | 0.07 | 0.07 | 82 | 1012.3 |
| 20260906034618 | 75 | 148 | 5.2 | 5.2 | 0.00 | 0.07 | 0.07 | 84 | 1012.2 |
| 20260906034112 | 75 | 141 | 5.2 | 6.1 | 0.00 | 0.07 | 0.07 | 83 | 1012.4 |
| 20260906033608 | 75 | 137 | 2.6 | 2.6 | 0.00 | 0.07 | 0.07 | 83 | 1012.4 |
| 20260906033103 | 76 | 81 | 0.9 | 0.9 | 0.00 | 0.07 | 0.07 | 82 | 1012.5 |
| 20260906032600 | 75 | 118 | 2.6 | 2.6 | 0.00 | 0.07 | 0.07 | 79 | 1012.3 |
| 20260906032100 | 75 | 130 | 3.5 | 4.3 | 0.00 | 0.07 | 0.07 | 83 | 1012.4 |
| 20260906031555 | 76 | 141 | 3.5 | 4.3 | 0.00 | 0.07 | 0.07 | 80 | 1012.2 |
| 20260906031051 | 76 | 153 | 4.3 | 4.3 | 0.00 | 0.07 | 0.07 | 80 | 1012.1 |
| 20260906030549 | 76 | 145 | 5.2 | 5.2 | 0.00 | 0.07 | 0.07 | 82 | 1012.1 |
| 20260906030044 | 75 | 98 | 5.2 | 6.1 | 0.00 | 0.07 | 0.07 | 82 | 1012.2 |
| 20260906025544 | 75 | 147 | 5.2 | 5.2 | 0.00 | 0.07 | 0.07 | 82 | 1012.2 |
| 20260906025042 | 75 | 145 | 4.3 | 5.2 | 0.00 | 0.07 | 0.07 | 83 | 1012.2 |
| 20260906024538 | 75 | 128 | 4.3 | 5.2 | 0.00 | 0.07 | 0.07 | 84 | 1012.1 |
| 20260906024037 | 75 | 146 | 5.2 | 5.2 | 0.00 | 0.07 | 0.07 | 84 | 1012.1 |
| 20260906023534 | 75 | 139 | 4.3 | 5.2 | 0.00 | 0.07 | 0.07 | 82 | 1012.0 |
| 20260906023028 | 75 | 145 | 4.3 | 5.2 | 0.00 | 0.07 | 0.07 | 82 | 1012.1 |
| 20260906022524 | 75 | 144 | 5.2 | 6.1 | 0.00 | 0.07 | 0.07 | 83 | 1011.7 |
| 20260906022019 | 74 | 141 | 5.2 | 6.1 | 0.00 | 0.07 | 0.07 | 85 | 1011.6 |
| 20260906021515 | 74 | 137 | 6.1 | 6.1 | 0.00 | 0.07 | 0.07 | 88 | 1011.4 |
| 20260906021009 | 74 | 139 | 5.2 | 5.2 | 0.00 | 0.07 | 0.07 | 88 | 1011.9 |
| 20260906020508 | 74 | 142 | 4.3 | 5.2 | 0.00 | 0.07 | 0.07 | 88 | 1011.9 |
| 20260906020008 | 73 | 141 | 4.3 | 5.2 | 0.00 | 0.07 | 0.07 | 88 | 1012.0 |
| 20260906015507 | 73 | 143 | 4.3 | 4.3 | 0.00 | 0.07 | 0.07 | 90 | 1011.6 |
| 20260906015007 | 73 | 155 | 3.5 | 4.3 | 0.00 | 0.07 | 0.07 | 90 | 1011.9 |
| 20260906014501 | 74 | 135 | 4.3 | 4.3 | 0.00 | 0.07 | 0.07 | 90 | 1012.0 |
| 20260906013957 | 74 | 128 | 3.5 | 4.3 | 0.00 | 0.07 | 0.07 | 89 | 1011.9 |
| 20260906013453 | 75 | 127 | 2.6 | 2.6 | 0.00 | 0.07 | 0.07 | 87 | 1012.0 |
| 20260906012949 | 75 | 114 | 2.6 | 2.6 | 0.00 | 0.07 | 0.07 | 86 | 1011.7 |
| 20260906012449 | 74 | 117 | 1.7 | 1.7 | 0.00 | 0.07 | 0.07 | 86 | 1011.6 |
| 20260906011948 | 75 | 129 | 2.6 | 2.6 | 0.00 | 0.07 | 0.07 | 89 | 1011.6 |
| 20260906011444 | 75 | 150 | 2.6 | 2.6 | 0.00 | 0.07 | 0.07 | 87 | 1011.2 |
| 20260906010939 | 75 | 137 | 2.6 | 2.6 | 0.00 | 0.07 | 0.07 | 86 | 1011.2 |
| 20260906010434 | 76 | 152 | 2.6 | 2.6 | 0.00 | 0.07 | 0.07 | 86 | 1011.3 |
| 20260906005930 | 76 | 67 | 0.9 | 1.7 | 0.00 | 0.07 | 0.07 | 85 | 1011.4 |
| 20260906005430 | 76 | 120 | 1.7 | 1.7 | 0.00 | 0.07 | 0.07 | 84 | 1011.1 |
| 20260906004928 | 77 | 136 | 1.7 | 1.7 | 0.00 | 0.07 | 0.07 | 82 | 1011.2 |
| 20260906004422 | 78 | 56 | 0.0 | 0.0 | 0.00 | 0.07 | 0.07 | 79 | 1011.3 |
| 20260906003919 | 78 | 58 | 0.0 | 0.0 | 0.00 | 0.07 | 0.07 | 79 | 1011.1 |
| 20260906003414 | 78 | 357 | 0.0 | 0.9 | 0.00 | 0.07 | 0.07 | 77 | 1011.0 |
| 20260906002909 | 77 | 144 | 0.9 | 0.9 | 0.00 | 0.07 | 0.07 | 82 | 1010.7 |
| 20260906002409 | 78 | 137 | 2.6 | 2.6 | 0.00 | 0.07 | 0.07 | 80 | 1010.9 |
| 20260906001904 | 78 | 152 | 2.6 | 2.6 | 0.00 | 0.07 | 0.07 | 79 | 1011.1 |
| 20260906001359 | 78 | 123 | 1.7 | 1.7 | 0.00 | 0.07 | 0.07 | 80 | 1011.2 |
| 20260906000854 | 78 | 142 | 1.7 | 1.7 | 0.00 | 0.07 | 0.07 | 79 | 1011.1 |
| 20260906000356 | 79 | 141 | 2.6 | 4.3 | 0.00 | 0.07 | 0.07 | 80 | 1011.0 |
| 20260905235849 | 79 | 138 | 4.3 | 5.2 | 0.00 | 0.07 | 0.07 | 80 | 1011.2 |
| 20260905235343 | 79 | 146 | 3.5 | 4.3 | 0.00 | 0.07 | 0.07 | 78 | 1011.3 |
| 20260905234838 | 79 | 137 | 4.3 | 4.3 | 0.00 | 0.07 | 0.07 | 78 | 1011.4 |
| 20260905234334 | 80 | 140 | 3.5 | 4.3 | 0.00 | 0.07 | 0.07 | 78 | 1011.4 |
| 20260905233829 | 80 | 131 | 4.3 | 4.3 | 0.00 | 0.07 | 0.07 | 79 | 1011.3 |
| 20260905233324 | 80 | 133 | 3.5 | 4.3 | 0.00 | 0.07 | 0.07 | 79 | 1011.1 |
| 20260905232823 | 80 | 152 | 4.3 | 5.2 | 0.00 | 0.07 | 0.07 | 81 | 1011.2 |
| 20260905232319 | 79 | 157 | 3.5 | 4.3 | 0.00 | 0.07 | 0.07 | 80 | 1010.9 |
| 20260905231815 | 79 | 56 | 4.3 | 5.2 | 0.00 | 0.07 | 0.07 | 82 | 1011.2 |
| 20260905231310 | 79 | 147 | 4.3 | 5.2 | 0.00 | 0.07 | 0.07 | 83 | 1010.8 |
| 20260905230806 | 80 | 178 | 3.5 | 4.3 | 0.00 | 0.07 | 0.07 | 83 | 1010.9 |
| 20260905230304 | 80 | 127 | 3.5 | 4.3 | 0.00 | 0.07 | 0.07 | 84 | 1011.0 |
| 20260905225803 | 80 | 130 | 3.5 | 4.3 | 0.00 | 0.07 | 0.07 | 83 | 1010.9 |
| 20260905225258 | 80 | 139 | 3.5 | 4.3 | 0.00 | 0.07 | 0.07 | 84 | 1011.0 |
| 20260905224758 | 81 | 148 | 3.5 | 4.3 | 0.00 | 0.07 | 0.07 | 82 | 1011.0 |
| 20260905224254 | 81 | 132 | 4.3 | 5.2 | 0.00 | 0.07 | 0.07 | 81 | 1010.9 |
| 20260905223749 | 82 | 147 | 4.3 | 5.2 | 0.00 | 0.07 | 0.07 | 81 | 1010.8 |
| 20260905223246 | 83 | 156 | 3.5 | 4.3 | 0.00 | 0.07 | 0.07 | 77 | 1010.9 |
| 20260905222741 | 83 | 127 | 3.5 | 4.3 | 0.00 | 0.07 | 0.07 | 78 | 1010.7 |
| 20260905222240 | 83 | 158 | 3.5 | 4.3 | 0.00 | 0.07 | 0.07 | 79 | 1011.0 |
| 20260905221736 | 83 | 154 | 4.3 | 5.2 | 0.00 | 0.07 | 0.07 | 78 | 1011.1 |
| 20260905221233 | 83 | 142 | 3.5 | 5.2 | 0.00 | 0.07 | 0.07 | 78 | 1011.0 |
| 20260905220729 | 83 | 169 | 3.5 | 4.3 | 0.00 | 0.07 | 0.07 | 77 | 1011.0 |
| 20260905220225 | 83 | 94 | 0.9 | 1.7 | 0.00 | 0.07 | 0.07 | 81 | 1011.5 |
| 20260905215724 | 83 | 102 | 2.6 | 2.6 | 0.00 | 0.07 | 0.07 | 77 | 1011.3 |
| 20260905215220 | 82 | 97 | 0.9 | 0.9 | 0.00 | 0.07 | 0.07 | 79 | 1011.6 |
| 20260905214715 | 81 | 102 | 2.6 | 2.6 | 0.00 | 0.07 | 0.07 | 80 | 1011.4 |
| 20260905214211 | 82 | 164 | 4.3 | 5.2 | 0.00 | 0.07 | 0.07 | 80 | 1011.4 |
| 20260905213706 | 83 | 9 | 2.6 | 2.6 | 0.00 | 0.07 | 0.07 | 81 | 1011.6 |
| 20260905213202 | 82 | 157 | 3.5 | 4.3 | 0.00 | 0.07 | 0.07 | 83 | 1011.7 |
| 20260905212657 | 80 | 166 | 2.6 | 2.6 | 0.00 | 0.07 | 0.07 | 87 | 1011.4 |
| 20260905212156 | 81 | 124 | 0.9 | 1.7 | 0.00 | 0.07 | 0.07 | 90 | 1011.6 |
| 20260905211650 | 81 | 80 | 0.9 | 0.9 | 0.00 | 0.07 | 0.07 | 87 | 1011.5 |
| 20260905211146 | 78 | 29 | 0.9 | 1.7 | 0.00 | 0.07 | 0.07 | 88 | 1011.5 |
| 20260905210643 | 79 | 76 | 1.7 | 1.7 | 0.00 | 0.07 | 0.07 | 95 | 1011.5 |
| 20260905210143 | 79 | 93 | 0.9 | 1.7 | 0.00 | 0.07 | 0.07 | 95 | 1011.5 |
| 20260905205642 | 79 | 320 | 0.9 | 0.9 | 0.00 | 0.07 | 0.07 | 95 | 1011.3 |
| 20260905205142 | 79 | 104 | 0.9 | 0.9 | 0.00 | 0.07 | 0.07 | 95 | 1011.0 |
| 20260905204641 | 79 | 109 | 1.7 | 1.7 | 0.00 | 0.07 | 0.07 | 95 | 1011.2 |
| 20260905204136 | 79 | 117 | 1.7 | 1.7 | 0.00 | 0.07 | 0.07 | 94 | 1011.3 |
| 20260905203631 | 80 | 119 | 1.7 | 1.7 | 0.00 | 0.07 | 0.07 | 94 | 1011.3 |
| 20260905203126 | 81 | 125 | 0.9 | 0.9 | 0.00 | 0.07 | 0.07 | 95 | 1011.4 |
| 20260905202622 | 79 | 77 | 0.9 | 0.9 | 0.00 | 0.07 | 0.07 | 94 | 1011.4 |
| 20260905202117 | 80 | 53 | 0.9 | 0.9 | 0.00 | 0.07 | 0.07 | 95 | 1011.9 |
| 20260905201613 | 81 | 37 | 0.0 | 0.9 | 0.00 | 0.07 | 0.07 | 95 | 1011.7 |
| 20260905201112 | 81 | 124 | 0.9 | 0.9 | 0.00 | 0.07 | 0.07 | 95 | 1011.5 |
| 20260905200608 | 79 | 359 | 0.9 | 0.9 | 0.00 | 0.07 | 0.07 | 95 | 1012.0 |
| 20260905195556 | 78 | 119 | 0.9 | 1.7 | 0.07 | 0.07 | 0.07 | 96 | 1012.3 |
| 20260905195051 | 77 | 24 | 0.9 | 1.7 | 0.24 | 0.07 | 0.07 | 94 | 1012.4 |
| 20260905194551 | 78 | 45 | 0.9 | 0.9 | 0.31 | 0.07 | 0.07 | 91 | 1012.3 |
| 20260905194050 | 78 | 334 | 0.9 | 0.9 | 0.24 | 0.04 | 0.04 | 85 | 1012.2 |
| 20260905193545 | 80 | 324 | 2.6 | 2.6 | 0.12 | 0.02 | 0.02 | 82 | 1012.1 |
| 20260905193041 | 82 | 325 | 1.7 | 1.7 | 0.00 | 0.00 | 0.00 | 81 | 1012.3 |
| 20260905192536 | 86 | 316 | 1.7 | 2.6 | 0.00 | 0.00 | 0.00 | 71 | 1012.4 |
| 20260905192032 | 86 | 346 | 0.9 | 0.9 | 0.00 | 0.00 | 0.00 | 71 | 1012.4 |
| 20260905191530 | 88 | 353 | 0.9 | 2.6 | 0.00 | 0.00 | 0.00 | 68 | 1012.4 |
| 20260905191030 | 91 | 355 | 6.1 | 7.0 | 0.00 | 0.00 | 0.00 | 61 | 1012.3 |
| 20260905190528 | 93 | 345 | 3.5 | 5.2 | 0.00 | 0.00 | 0.00 | 57 | 1012.2 |
| 20260905190028 | 94 | 334 | 2.6 | 2.6 | 0.00 | 0.00 | 0.00 | 55 | 1012.1 |
| 20260905185527 | 94 | 328 | 1.7 | 1.7 | 0.00 | 0.00 | 0.00 | 53 | 1012.1 |
| 20260905185026 | 93 | 3 | 0.9 | 0.9 | 0.00 | 0.00 | 0.00 | 54 | 1012.3 |
| 20260905184521 | 94 | 304 | 1.7 | 1.7 | 0.00 | 0.00 | 0.00 | 53 | 1012.5 |
| 20260905184019 | 93 | 297 | 5.2 | 7.0 | 0.00 | 0.00 | 0.00 | 54 | 1012.4 |
| 20260905183514 | 90 | 312 | 0.9 | 1.7 | 0.00 | 0.00 | 0.00 | 57 | 1012.4 |
| 20260905183009 | 91 | 320 | 0.9 | 1.7 | 0.00 | 0.00 | 0.00 | 55 | 1012.4 |
| 20260905182509 | 93 | 8 | 0.9 | 0.9 | 0.00 | 0.00 | 0.00 | 55 | 1012.6 |
| 20260905182003 | 93 | 318 | 1.7 | 1.7 | 0.00 | 0.00 | 0.00 | 54 | 1012.7 |
| 20260905181458 | 93 | 14 | 0.9 | 0.9 | 0.00 | 0.00 | 0.00 | 52 | 1012.5 |
| 20260905180957 | 92 | 350 | 1.7 | 1.7 | 0.00 | 0.00 | 0.00 | 56 | 1012.7 |
| 20260905180452 | 90 | 325 | 4.3 | 5.2 | 0.00 | 0.00 | 0.00 | 57 | 1012.8 |
| 20260905175947 | 91 | 323 | 4.3 | 6.1 | 0.00 | 0.00 | 0.00 | 57 | 1012.9 |
| 20260905175447 | 92 | 331 | 2.6 | 2.6 | 0.00 | 0.00 | 0.00 | 56 | 1012.6 |
| 20260905174943 | 91 | 308 | 2.6 | 2.6 | 0.00 | 0.00 | 0.00 | 54 | 1012.7 |
| 20260905174437 | 91 | 296 | 4.3 | 6.1 | 0.00 | 0.00 | 0.00 | 53 | 1013.0 |
| 20260905173933 | 92 | 317 | 4.3 | 6.1 | 0.00 | 0.00 | 0.00 | 52 | 1012.9 |
| 20260905173430 | 92 | 291 | 2.6 | 4.3 | 0.00 | 0.00 | 0.00 | 52 | 1013.2 |
| 20260905172925 | 91 | 342 | 1.7 | 1.7 | 0.00 | 0.00 | 0.00 | 52 | 1013.2 |
| 20260905172422 | 91 | 311 | 0.9 | 1.7 | 0.00 | 0.00 | 0.00 | 52 | 1013.0 |
| 20260905171919 | 91 | 322 | 2.6 | 2.6 | 0.00 | 0.00 | 0.00 | 58 | 1013.3 |
| 20260905171415 | 91 | 320 | 2.6 | 4.3 | 0.00 | 0.00 | 0.00 | 61 | 1013.2 |
| 20260905170911 | 91 | 299 | 1.7 | 1.7 | 0.00 | 0.00 | 0.00 | 58 | 1013.3 |
| 20260905170407 | 92 | 239 | 0.9 | 0.9 | 0.00 | 0.00 | 0.00 | 59 | 1013.3 |
| 20260905165906 | 93 | 324 | 1.7 | 1.7 | 0.00 | 0.00 | 0.00 | 56 | 1013.3 |
| 20260905165401 | 93 | 351 | 0.9 | 0.9 | 0.00 | 0.00 | 0.00 | 57 | 1013.2 |
| 20260905164856 | 92 | 322 | 0.9 | 0.9 | 0.00 | 0.00 | 0.00 | 60 | 1013.6 |
| 20260905164351 | 90 | 17 | 0.9 | 0.9 | 0.00 | 0.00 | 0.00 | 61 | 1013.9 |
| 20260905163846 | 89 | 6 | 0.9 | 0.9 | 0.00 | 0.00 | 0.00 | 63 | 1013.6 |
| 20260905163343 | 89 | 322 | 1.7 | 2.6 | 0.00 | 0.00 | 0.00 | 64 | 1013.6 |
| 20260905162839 | 89 | 317 | 0.9 | 1.7 | 0.00 | 0.00 | 0.00 | 65 | 1013.9 |
| 20260905162338 | 89 | 312 | 0.9 | 0.9 | 0.00 | 0.00 | 0.00 | 65 | 1013.8 |
| 20260905161833 | 88 | 351 | 1.7 | 1.7 | 0.00 | 0.00 | 0.00 | 66 | 1013.8 |
| 20260905161332 | 88 | 312 | 0.9 | 1.7 | 0.00 | 0.00 | 0.00 | 66 | 1013.9 |
| 20260905160830 | 88 | 325 | 0.9 | 0.9 | 0.00 | 0.00 | 0.00 | 66 | 1014.0 |
| 20260905160325 | 87 | 329 | 2.6 | 4.3 | 0.00 | 0.00 | 0.00 | 67 | 1014.0 |
| 20260905155819 | 87 | 323 | 1.7 | 1.7 | 0.00 | 0.00 | 0.00 | 67 | 1014.2 |
| 20260905155319 | 87 | 330 | 1.7 | 1.7 | 0.00 | 0.00 | 0.00 | 68 | 1014.0 |
| 20260905154813 | 87 | 308 | 1.7 | 1.7 | 0.00 | 0.00 | 0.00 | 68 | 1013.9 |
| 20260905154309 | 87 | 343 | 0.9 | 0.9 | 0.00 | 0.00 | 0.00 | 71 | 1014.1 |
| 20260905153804 | 86 | 329 | 0.9 | 0.9 | 0.00 | 0.00 | 0.00 | 72 | 1014.2 |
| 20260905153300 | 86 | 333 | 0.9 | 0.9 | 0.00 | 0.00 | 0.00 | 72 | 1014.0 |
| 20260905152754 | 86 | 357 | 0.9 | 0.9 | 0.00 | 0.00 | 0.00 | 76 | 1014.1 |
| 20260905152254 | 86 | 320 | 0.9 | 0.9 | 0.00 | 0.00 | 0.00 | 74 | 1014.0 |
| 20260905151754 | 85 | 313 | 0.9 | 1.7 | 0.00 | 0.00 | 0.00 | 74 | 1014.3 |
| 20260905151250 | 85 | 342 | 0.9 | 0.9 | 0.00 | 0.00 | 0.00 | 74 | 1014.3 |
| 20260905150744 | 85 | 328 | 1.7 | 1.7 | 0.00 | 0.00 | 0.00 | 73 | 1014.1 |
| 20260905150244 | 86 | 319 | 0.9 | 0.9 | 0.00 | 0.00 | 0.00 | 72 | 1013.9 |
| 20260905145741 | 86 | 2 | 0.9 | 0.9 | 0.00 | 0.00 | 0.00 | 72 | 1014.1 |
| 20260905145236 | 85 | 338 | 0.9 | 1.7 | 0.00 | 0.00 | 0.00 | 73 | 1014.5 |
| 20260905144735 | 84 | 348 | 0.9 | 0.9 | 0.00 | 0.00 | 0.00 | 74 | 1014.4 |
| 20260905144231 | 84 | 343 | 2.6 | 2.6 | 0.00 | 0.00 | 0.00 | 74 | 1014.3 |
| 20260905143730 | 84 | 347 | 0.9 | 0.9 | 0.00 | 0.00 | 0.00 | 73 | 1014.3 |
| 20260905143229 | 84 | 344 | 0.0 | 0.0 | 0.00 | 0.00 | 0.00 | 77 | 1014.3 |
| 20260905142727 | 84 | 325 | 0.9 | 0.9 | 0.00 | 0.00 | 0.00 | 78 | 1014.1 |
| 20260905142222 | 84 | 347 | 0.9 | 0.9 | 0.00 | 0.00 | 0.00 | 75 | 1014.3 |
| 20260905141718 | 84 | 339 | 0.9 | 0.9 | 0.00 | 0.00 | 0.00 | 73 | 1014.3 |
| 20260905141214 | 83 | 339 | 0.9 | 0.9 | 0.00 | 0.00 | 0.00 | 73 | 1014.3 |
| 20260905140709 | 83 | 339 | 0.9 | 0.9 | 0.00 | 0.00 | 0.00 | 76 | 1014.2 |
| 20260905140209 | 84 | 338 | 0.9 | 0.9 | 0.00 | 0.00 | 0.00 | 73 | 1014.0 |
| 20260905135658 | 84 | 338 | 0.9 | 0.9 | 0.00 | 0.00 | 0.00 | 71 | 1014.3 |
| 20260905135154 | 84 | 338 | 0.9 | 0.9 | 0.00 | 0.00 | 0.00 | 74 | 1014.2 |
| 20260905134653 | 86 | 108 | 0.9 | 0.9 | 0.00 | 0.00 | 0.00 | 69 | 1014.3 |
| 20260905134153 | 85 | 108 | 0.0 | 0.0 | 0.00 | 0.00 | 0.00 | 74 | 1014.3 |
| 20260905133648 | 83 | 108 | 0.0 | 0.0 | 0.00 | 0.00 | 0.00 | 76 | 1014.3 |
| 20260905133148 | 84 | 108 | 0.0 | 0.0 | 0.00 | 0.00 | 0.00 | 81 | 1014.5 |
| 20260905132647 | 82 | 108 | 0.0 | 0.0 | 0.00 | 0.00 | 0.00 | 81 | 1014.5 |
| 20260905132142 | 82 | 107 | 0.0 | 0.0 | 0.00 | 0.00 | 0.00 | 84 | 1014.4 |
| 20260905131638 | 79 | 108 | 0.0 | 0.0 | 0.00 | 0.00 | 0.00 | 86 | 1014.4 |
| 20260905131132 | 78 | 108 | 0.9 | 0.9 | 0.00 | 0.00 | 0.00 | 90 | 1014.3 |
| 20260905130626 | 77 | 108 | 0.0 | 0.9 | 0.00 | 0.00 | 0.00 | 92 | 1014.7 |
| 20260905130121 | 77 | 108 | 0.0 | 0.0 | 0.00 | 0.00 | 0.00 | 92 | 1014.7 |
| 20260905125615 | 76 | 108 | 0.0 | 0.0 | 0.00 | 0.00 | 0.00 | 93 | 1014.4 |
| 20260905125111 | 76 | 108 | 0.0 | 0.0 | 0.00 | 0.00 | 0.00 | 93 | 1014.5 |
| 20260905124607 | 75 | 108 | 0.0 | 0.0 | 0.00 | 0.00 | 0.00 | 94 | 1014.5 |
| 20260905124103 | 75 | 108 | 0.0 | 0.9 | 0.00 | 0.00 | 0.00 | 93 | 1014.4 |
| 20260905123558 | 75 | 108 | 0.9 | 0.9 | 0.00 | 0.00 | 0.00 | 94 | 1014.6 |
| 20260905123055 | 74 | 108 | 0.0 | 0.9 | 0.00 | 0.00 | 0.00 | 94 | 1014.4 |
| 20260905122555 | 74 | 108 | 0.9 | 0.9 | 0.00 | 0.00 | 0.00 | 94 | 1014.4 |
| 20260905122055 | 74 | 108 | 0.0 | 0.9 | 0.00 | 0.00 | 0.00 | 94 | 1014.4 |
| 20260905121550 | 73 | 108 | 0.9 | 0.9 | 0.00 | 0.00 | 0.00 | 94 | 1014.5 |
| 20260905121045 | 73 | 108 | 0.9 | 0.9 | 0.00 | 0.00 | 0.00 | 93 | 1014.4 |
| 20260905120544 | 73 | 108 | 0.9 | 0.9 | 0.00 | 0.00 | 0.00 | 93 | 1014.3 |
| 20260905120040 | 73 | 108 | 0.9 | 0.9 | 0.00 | 0.00 | 0.00 | 93 | 1014.2 |
| 20260905115538 | 73 | 108 | 0.9 | 0.9 | 0.00 | 0.00 | 0.00 | 93 | 1014.1 |
| 20260905115033 | 73 | 108 | 0.9 | 0.9 | 0.00 | 0.00 | 0.00 | 93 | 1014.0 |
| 20260905114532 | 73 | 109 | 1.7 | 1.7 | 0.00 | 0.00 | 0.00 | 93 | 1013.6 |
| 20260905114032 | 73 | 109 | 0.9 | 1.7 | 0.00 | 0.00 | 0.00 | 92 | 1014.0 |
| 20260905113527 | 73 | 108 | 0.9 | 0.9 | 0.00 | 0.00 | 0.00 | 92 | 1014.0 |
| 20260905113022 | 73 | 109 | 0.9 | 1.7 | 0.00 | 0.00 | 0.00 | 92 | 1013.6 |
| 20260905112518 | 73 | 109 | 1.7 | 1.7 | 0.00 | 0.00 | 0.00 | 91 | 1013.9 |
| 20260905112013 | 73 | 109 | 1.7 | 1.7 | 0.00 | 0.00 | 0.00 | 91 | 1013.6 |
| 20260905111513 | 73 | 108 | 0.9 | 1.7 | 0.00 | 0.00 | 0.00 | 91 | 1013.3 |
| 20260905111007 | 73 | 109 | 1.7 | 1.7 | 0.00 | 0.00 | 0.00 | 90 | 1013.3 |
| 20260905110506 | 73 | 108 | 0.9 | 0.9 | 0.00 | 0.00 | 0.00 | 90 | 1013.4 |
| 20260905110001 | 74 | 108 | 0.9 | 0.9 | 0.00 | 0.00 | 0.00 | 90 | 1013.3 |
| 20260905105455 | 74 | 108 | 0.9 | 1.7 | 0.00 | 0.00 | 0.00 | 89 | 1013.1 |
| 20260905104954 | 74 | 108 | 0.9 | 1.7 | 0.00 | 0.00 | 0.00 | 89 | 1013.3 |
| 20260905104451 | 74 | 108 | 0.9 | 1.7 | 0.00 | 0.00 | 0.00 | 90 | 1013.2 |
| 20260905103945 | 74 | 108 | 0.9 | 0.9 | 0.00 | 0.00 | 0.00 | 89 | 1013.2 |
| 20260905103440 | 74 | 108 | 1.7 | 1.7 | 0.00 | 0.00 | 0.00 | 89 | 1013.3 |
| 20260905102937 | 74 | 109 | 1.7 | 1.7 | 0.00 | 0.00 | 0.00 | 89 | 1013.1 |
| 20260905102432 | 74 | 108 | 0.9 | 1.7 | 0.00 | 0.00 | 0.00 | 89 | 1013.2 |
| 20260905101927 | 74 | 109 | 1.7 | 1.7 | 0.00 | 0.00 | 0.00 | 89 | 1013.2 |
| 20260905101426 | 74 | 109 | 1.7 | 1.7 | 0.00 | 0.00 | 0.00 | 89 | 1013.5 |
| 20260905100921 | 74 | 108 | 0.9 | 1.7 | 0.00 | 0.00 | 0.00 | 88 | 1013.1 |
| 20260905100416 | 74 | 108 | 1.7 | 1.7 | 0.00 | 0.00 | 0.00 | 89 | 1013.3 |
| 20260905095916 | 74 | 108 | 1.7 | 1.7 | 0.00 | 0.00 | 0.00 | 89 | 1013.1 |
| 20260905095411 | 74 | 109 | 1.7 | 1.7 | 0.00 | 0.00 | 0.00 | 88 | 1013.0 |
| 20260905094911 | 74 | 109 | 1.7 | 1.7 | 0.00 | 0.00 | 0.00 | 88 | 1013.1 |
| 20260905094407 | 74 | 109 | 1.7 | 1.7 | 0.00 | 0.00 | 0.00 | 88 | 1013.0 |
| 20260905093905 | 74 | 108 | 1.7 | 1.7 | 0.00 | 0.00 | 0.00 | 88 | 1013.0 |
| 20260905093401 | 74 | 109 | 1.7 | 1.7 | 0.00 | 0.00 | 0.00 | 89 | 1013.0 |
| 20260905092856 | 74 | 108 | 0.9 | 0.9 | 0.00 | 0.00 | 0.00 | 89 | 1013.0 |
| 20260905092351 | 74 | 108 | 1.7 | 1.7 | 0.00 | 0.00 | 0.00 | 89 | 1013.0 |
| 20260905091846 | 74 | 109 | 1.7 | 1.7 | 0.00 | 0.00 | 0.00 | 89 | 1013.1 |
| 20260905091346 | 74 | 109 | 1.7 | 1.7 | 0.00 | 0.00 | 0.00 | 90 | 1013.1 |
| 20260905090845 | 74 | 109 | 1.7 | 1.7 | 0.00 | 0.00 | 0.00 | 90 | 1013.2 |
| 20260905090341 | 74 | 108 | 1.7 | 1.7 | 0.00 | 0.00 | 0.00 | 90 | 1012.9 |
| 20260905085840 | 74 | 109 | 1.7 | 1.7 | 0.00 | 0.00 | 0.00 | 90 | 1012.8 |
| 20260905085340 | 74 | 108 | 0.9 | 1.7 | 0.00 | 0.00 | 0.00 | 90 | 1013.0 |
| 20260905084836 | 74 | 108 | 1.7 | 1.7 | 0.00 | 0.00 | 0.00 | 89 | 1013.0 |
| 20260905084334 | 74 | 108 | 1.7 | 1.7 | 0.00 | 0.00 | 0.00 | 89 | 1013.0 |
| 20260905083829 | 74 | 108 | 1.7 | 1.7 | 0.00 | 0.00 | 0.00 | 89 | 1012.7 |
| 20260905083326 | 74 | 108 | 1.7 | 1.7 | 0.00 | 0.00 | 0.00 | 89 | 1012.9 |
| 20260905082820 | 74 | 108 | 1.7 | 1.7 | 0.00 | 0.00 | 0.00 | 89 | 1012.9 |
| 20260905082317 | 75 | 107 | 1.7 | 1.7 | 0.00 | 0.00 | 0.00 | 89 | 1013.0 |
| 20260905081812 | 75 | 107 | 1.7 | 1.7 | 0.00 | 0.00 | 0.00 | 89 | 1012.9 |
| 20260905081307 | 75 | 108 | 1.7 | 1.7 | 0.00 | 0.00 | 0.00 | 89 | 1013.1 |
| 20260905080805 | 75 | 107 | 1.7 | 1.7 | 0.00 | 0.00 | 0.00 | 88 | 1012.8 |
| 20260905080300 | 75 | 107 | 1.7 | 1.7 | 0.00 | 0.00 | 0.00 | 88 | 1012.8 |
| 20260905075758 | 75 | 107 | 1.7 | 1.7 | 0.00 | 0.00 | 0.00 | 88 | 1012.8 |
| 20260905075253 | 75 | 107 | 0.9 | 1.7 | 0.00 | 0.00 | 0.00 | 88 | 1012.7 |
| 20260905074752 | 75 | 108 | 1.7 | 1.7 | 0.00 | 0.00 | 0.00 | 88 | 1012.9 |
| 20260905074248 | 75 | 107 | 1.7 | 1.7 | 0.00 | 0.00 | 0.00 | 88 | 1012.7 |
| 20260905073743 | 75 | 108 | 1.7 | 1.7 | 0.00 | 0.00 | 0.00 | 89 | 1012.9 |
| 20260905073239 | 75 | 107 | 1.7 | 1.7 | 0.00 | 0.00 | 0.00 | 89 | 1013.1 |
| 20260905072738 | 75 | 106 | 0.9 | 1.7 | 0.00 | 0.00 | 0.00 | 88 | 1012.7 |
| 20260905072234 | 75 | 107 | 1.7 | 1.7 | 0.00 | 0.00 | 0.00 | 88 | 1012.8 |
| 20260905071730 | 75 | 107 | 1.7 | 1.7 | 0.00 | 0.00 | 0.00 | 88 | 1013.2 |
| 20260905071226 | 76 | 107 | 1.7 | 1.7 | 0.00 | 0.00 | 0.00 | 87 | 1013.0 |
| 20260905070721 | 76 | 108 | 1.7 | 1.7 | 0.00 | 0.00 | 0.00 | 87 | 1013.0 |
| 20260905070217 | 76 | 107 | 0.9 | 1.7 | 0.00 | 0.00 | 0.00 | 87 | 1012.9 |
| 20260905065715 | 75 | 107 | 1.7 | 1.7 | 0.00 | 0.00 | 0.00 | 88 | 1013.0 |